createdAt,value
2023-05-15T00:01:30.860Z,12.40
2023-05-15T00:04:34.091Z,12.40
2023-05-15T00:07:39.509Z,12.40
2023-05-15T00:10:50.475Z,12.40
2023-05-15T00:14:03.129Z,12.40
2023-05-15T00:17:06.606Z,12.40
2023-05-15T00:20:10.343Z,12.40
2023-05-15T00:23:14.892Z,12.40
2023-05-15T00:26:18.032Z,12.50
2023-05-15T00:29:21.160Z,12.50
2023-05-15T00:32:24.349Z,12.50
2023-05-15T00:35:27.502Z,12.50
2023-05-15T00:38:33.606Z,12.50
2023-05-15T00:41:37.784Z,12.50
2023-05-15T00:44:42.571Z,12.50
2023-05-15T00:47:46.781Z,12.40
2023-05-15T00:50:51.561Z,12.50
2023-05-15T00:53:56.808Z,12.40
2023-05-15T00:57:01.175Z,12.40
2023-05-15T01:00:07.147Z,12.40
2023-05-15T01:03:10.643Z,12.40
2023-05-15T01:06:14.289Z,12.50
2023-05-15T01:09:19.845Z,12.50
2023-05-15T01:12:27.054Z,12.50
2023-05-15T01:15:30.133Z,12.50
2023-05-15T01:18:33.606Z,12.40
2023-05-15T01:21:58.795Z,12.40
2023-05-15T01:25:31.705Z,12.40
2023-05-15T01:28:42.582Z,12.40
2023-05-15T01:31:50.611Z,12.40
2023-05-15T01:34:59.156Z,12.40
2023-05-15T01:38:14.214Z,12.40
2023-05-15T01:41:22.286Z,12.40
2023-05-15T01:44:30.144Z,12.40
2023-05-15T01:47:37.780Z,12.40
2023-05-15T01:50:42.095Z,12.40
2023-05-15T01:53:46.649Z,12.40
2023-05-15T01:56:50.763Z,12.40
2023-05-15T01:59:56.521Z,12.50
2023-05-15T02:03:00.701Z,12.50
2023-05-15T02:06:06.028Z,12.50
2023-05-15T02:09:10.510Z,12.40
2023-05-15T02:12:14.629Z,12.40
2023-05-15T02:15:19.907Z,12.40
2023-05-15T02:18:23.407Z,12.40
2023-05-15T02:21:27.373Z,12.30
2023-05-15T02:24:30.487Z,12.40
2023-05-15T02:27:40.054Z,12.30
2023-05-15T02:30:55.018Z,12.20
2023-05-15T02:34:10.033Z,12.20
2023-05-15T02:37:18.254Z,12.20
2023-05-15T02:40:24.029Z,12.10
2023-05-15T02:43:28.375Z,12.00
2023-05-15T02:46:33.549Z,12.00
2023-05-15T02:49:37.631Z,12.00
2023-05-15T02:52:40.764Z,12.00
2023-05-15T02:55:43.853Z,11.90
2023-05-15T02:58:47.089Z,11.90
2023-05-15T03:01:52.187Z,11.80
2023-05-15T03:04:55.436Z,11.80
2023-05-15T03:07:59.400Z,11.80
2023-05-15T03:11:02.502Z,11.80
2023-05-15T03:14:05.549Z,11.80
2023-05-15T03:17:10.103Z,11.80
2023-05-15T03:20:16.429Z,11.80
2023-05-15T03:23:19.560Z,11.90
2023-05-15T03:26:23.169Z,11.90
2023-05-15T03:29:26.277Z,11.90
2023-05-15T03:32:30.818Z,11.90
2023-05-15T03:35:33.947Z,11.90
2023-05-15T03:38:37.123Z,11.80
2023-05-15T03:41:40.249Z,11.90
2023-05-15T03:44:43.439Z,11.90
2023-05-15T03:47:48.456Z,11.90
2023-05-15T03:50:53.375Z,12.00
2023-05-15T03:53:56.604Z,12.00
2023-05-15T03:56:59.781Z,12.00
2023-05-15T04:00:07.433Z,12.00
2023-05-15T04:03:11.979Z,12.00
2023-05-15T04:06:15.226Z,12.10
2023-05-15T04:09:18.387Z,12.10
2023-05-15T04:12:22.260Z,12.10
2023-05-15T04:15:28.746Z,12.20
2023-05-15T04:18:33.357Z,12.20
2023-05-15T04:21:36.513Z,12.30
2023-05-15T04:24:39.568Z,12.30
2023-05-15T04:27:43.777Z,12.30
2023-05-15T04:30:46.956Z,12.40
2023-05-15T04:33:51.483Z,12.40
2023-05-15T04:36:54.590Z,12.50
2023-05-15T04:39:57.740Z,12.70
2023-05-15T04:43:00.845Z,12.80
2023-05-15T04:46:04.046Z,13.00
2023-05-15T04:49:08.647Z,13.10
2023-05-15T04:52:12.134Z,13.10
2023-05-15T04:55:15.270Z,13.20
2023-05-15T04:58:18.423Z,13.30
2023-05-15T05:01:24.401Z,13.30
2023-05-15T05:04:28.906Z,13.30
2023-05-15T05:07:32.083Z,13.40
2023-05-15T05:10:35.221Z,13.40
2023-05-15T05:13:38.336Z,13.50
2023-05-15T05:16:41.896Z,13.70
2023-05-15T05:19:46.440Z,14.00
2023-05-15T05:22:49.553Z,14.10
2023-05-15T05:25:55.512Z,14.30
2023-05-15T05:28:58.705Z,14.40
2023-05-15T05:32:02.286Z,14.40
2023-05-15T05:35:07.437Z,14.50
2023-05-15T05:38:10.528Z,14.60
2023-05-15T05:41:13.640Z,14.70
2023-05-15T05:44:16.744Z,14.90
2023-05-15T05:47:19.916Z,15.20
2023-05-15T05:50:24.793Z,15.50
2023-05-15T05:53:27.927Z,16.10
2023-05-15T05:56:31.163Z,16.70
2023-05-15T05:59:34.248Z,17.40
2023-05-15T06:02:38.252Z,18.00
2023-05-15T06:05:42.895Z,18.60
2023-05-15T06:08:46.057Z,19.20
2023-05-15T06:11:49.237Z,20.10
2023-05-15T06:14:52.513Z,20.60
2023-05-15T06:17:55.697Z,20.90
2023-05-15T06:21:00.617Z,21.50
2023-05-15T06:24:03.801Z,22.40
2023-05-15T06:27:07.168Z,22.80
2023-05-15T06:30:11.377Z,23.00
2023-05-15T06:33:14.610Z,23.00
2023-05-15T06:36:19.216Z,23.50
2023-05-15T06:39:22.320Z,24.10
2023-05-15T06:42:25.525Z,24.40
2023-05-15T06:45:29.073Z,25.40
2023-05-15T06:48:32.338Z,26.10
2023-05-15T06:51:36.806Z,26.40
2023-05-15T06:54:40.542Z,27.20
2023-05-15T06:57:43.674Z,27.90
2023-05-15T07:00:46.731Z,28.60
2023-05-15T07:03:49.802Z,29.50
2023-05-15T07:06:54.290Z,30.10
2023-05-15T07:09:57.416Z,30.10
2023-05-15T07:13:00.567Z,30.80
2023-05-15T07:16:04.866Z,31.60
2023-05-15T07:19:10.506Z,32.10
2023-05-15T07:22:15.144Z,32.10
2023-05-15T07:25:18.350Z,32.90
2023-05-15T07:28:21.691Z,33.70
2023-05-15T07:31:25.148Z,34.40
2023-05-15T07:34:28.288Z,35.00
2023-05-15T07:37:32.736Z,35.80
2023-05-15T07:40:35.869Z,36.20
2023-05-15T07:43:38.952Z,36.50
2023-05-15T07:46:42.068Z,37.10
2023-05-15T07:49:45.183Z,37.30
2023-05-15T07:52:49.663Z,37.70
2023-05-15T07:55:52.945Z,38.40
2023-05-15T07:58:56.177Z,38.60
2023-05-15T08:01:59.291Z,39.10
2023-05-15T08:05:02.369Z,39.50
2023-05-15T08:08:06.973Z,39.60
2023-05-15T08:11:10.106Z,39.20
2023-05-15T08:14:13.876Z,39.20
2023-05-15T08:17:17.211Z,38.70
2023-05-15T08:20:20.306Z,37.80
2023-05-15T08:23:24.851Z,37.00
2023-05-15T08:26:28.089Z,35.60
2023-05-15T08:29:31.285Z,34.00
2023-05-15T08:32:34.455Z,32.00
2023-05-15T08:35:37.862Z,31.10
2023-05-15T08:38:42.547Z,30.00
2023-05-15T08:41:52.280Z,29.00
2023-05-15T08:44:56.585Z,27.80
2023-05-15T08:48:01.745Z,26.70
2023-05-15T08:51:05.499Z,25.70
2023-05-15T08:54:10.605Z,25.30
2023-05-15T08:57:13.854Z,25.00
2023-05-15T09:00:21.007Z,24.90
2023-05-15T09:03:24.471Z,24.90
2023-05-15T09:06:29.160Z,24.80
2023-05-15T09:09:34.320Z,24.40
2023-05-15T09:12:42.645Z,24.20
2023-05-15T09:15:47.779Z,24.40
2023-05-15T09:18:51.392Z,24.80
2023-05-15T09:21:54.620Z,24.80
2023-05-15T09:24:59.094Z,24.80
2023-05-15T09:28:02.572Z,25.00
2023-05-15T09:31:06.515Z,24.80
2023-05-15T09:34:10.304Z,24.50
2023-05-15T09:37:31.115Z,24.20
2023-05-15T09:40:35.782Z,23.90
2023-05-15T09:43:40.128Z,23.90
2023-05-15T09:46:44.485Z,24.10
2023-05-15T09:49:47.979Z,24.50
2023-05-15T09:52:51.768Z,24.90
2023-05-15T09:55:56.327Z,25.10
2023-05-15T09:59:00.433Z,25.30
2023-05-15T10:02:03.688Z,25.20
2023-05-15T10:05:07.068Z,25.00
2023-05-15T10:08:10.544Z,24.80
2023-05-15T10:11:15.307Z,24.70
2023-05-15T10:14:19.663Z,24.50
2023-05-15T10:17:23.697Z,24.20
2023-05-15T10:20:27.733Z,24.10
2023-05-15T10:23:32.900Z,24.00
2023-05-15T10:26:39.902Z,23.90
2023-05-15T10:29:43.759Z,23.90
2023-05-15T10:32:47.769Z,23.70
2023-05-15T10:35:52.179Z,23.50
2023-05-15T10:38:55.468Z,23.60
2023-05-15T10:42:01.306Z,23.60
2023-05-15T10:45:04.672Z,23.60
2023-05-15T10:48:12.267Z,23.50
2023-05-15T10:51:17.542Z,23.60
2023-05-15T10:54:22.891Z,23.70
2023-05-15T10:57:31.373Z,23.70
2023-05-15T11:00:34.604Z,23.50
2023-05-15T11:03:48.649Z,23.50
2023-05-15T11:07:13.106Z,23.40
2023-05-15T11:10:37.762Z,23.30
2023-05-15T11:14:15.402Z,23.00
2023-05-15T11:17:19.362Z,22.90
2023-05-15T11:20:35.248Z,23.00
2023-05-15T11:23:41.987Z,23.00
2023-05-15T11:26:45.184Z,22.80
2023-05-15T11:30:12.728Z,22.80
2023-05-15T11:33:17.761Z,22.90
2023-05-15T11:36:25.964Z,23.00
2023-05-15T11:39:29.491Z,23.30
2023-05-15T11:42:33.514Z,23.60
2023-05-15T11:45:40.632Z,24.00
2023-05-15T11:48:47.687Z,24.20
2023-05-15T11:51:52.393Z,23.90
2023-05-15T11:54:56.189Z,23.80
2023-05-15T11:58:00.751Z,23.70
2023-05-15T12:01:05.362Z,23.70
2023-05-15T12:04:14.321Z,23.70
2023-05-15T12:07:18.848Z,23.90
2023-05-15T12:10:22.082Z,24.10
2023-05-15T12:13:26.296Z,24.20
2023-05-15T12:16:31.034Z,24.20
2023-05-15T12:19:35.950Z,24.20
2023-05-15T12:22:39.877Z,24.20
2023-05-15T12:25:44.541Z,24.30
2023-05-15T12:28:47.788Z,24.40
2023-05-15T12:31:54.116Z,24.40
2023-05-15T12:34:58.117Z,24.50
2023-05-15T12:38:01.363Z,24.60
2023-05-15T12:41:04.572Z,24.60
2023-05-15T12:44:07.785Z,24.70
2023-05-15T12:47:15.328Z,24.50
2023-05-15T12:50:19.350Z,24.30
2023-05-15T12:53:23.204Z,24.20
2023-05-15T12:56:26.425Z,24.00
2023-05-15T12:59:30.874Z,23.90
2023-05-15T13:02:35.454Z,23.70
2023-05-15T13:05:39.671Z,23.80
2023-05-15T13:08:44.259Z,24.00
2023-05-15T13:11:48.278Z,24.20
2023-05-15T13:14:51.427Z,24.50
2023-05-15T13:18:00.246Z,24.70
2023-05-15T13:21:03.761Z,25.00
2023-05-15T13:24:10.014Z,24.90
2023-05-15T13:27:13.165Z,24.90
2023-05-15T13:30:16.724Z,24.90
2023-05-15T13:33:21.324Z,24.90
2023-05-15T13:36:24.830Z,24.80
2023-05-15T13:39:27.986Z,24.70
2023-05-15T13:42:31.246Z,24.60
2023-05-15T13:45:34.632Z,24.60
2023-05-15T13:48:39.192Z,24.80
2023-05-15T13:51:42.605Z,25.00
2023-05-15T13:54:45.784Z,25.30
2023-05-15T13:57:48.990Z,25.10
2023-05-15T14:00:52.366Z,25.00
2023-05-15T14:03:56.924Z,24.60
2023-05-15T14:07:00.259Z,24.40
2023-05-15T14:10:03.892Z,24.40
2023-05-15T14:13:07.059Z,24.20
2023-05-15T14:16:10.214Z,24.10
2023-05-15T14:19:14.750Z,24.00
2023-05-15T14:22:17.907Z,24.00
2023-05-15T14:25:20.978Z,24.10
2023-05-15T14:28:24.101Z,24.00
2023-05-15T14:31:27.527Z,23.90
2023-05-15T14:34:32.554Z,23.90
2023-05-15T14:37:35.763Z,23.90
2023-05-15T14:40:38.974Z,24.10
2023-05-15T14:43:42.096Z,24.10
2023-05-15T14:46:45.562Z,24.10
2023-05-15T14:49:50.163Z,23.90
2023-05-15T14:52:53.348Z,23.70
2023-05-15T14:55:58.517Z,23.70
2023-05-15T14:59:01.646Z,23.60
2023-05-15T15:02:04.959Z,23.50
2023-05-15T15:05:10.551Z,23.40
2023-05-15T15:08:13.760Z,23.30
2023-05-15T15:11:17.056Z,23.50
2023-05-15T15:14:20.252Z,23.80
2023-05-15T15:17:23.618Z,24.10
2023-05-15T15:20:29.139Z,24.20
2023-05-15T15:23:32.360Z,24.20
2023-05-15T15:26:35.494Z,24.10
2023-05-15T15:29:38.691Z,24.40
2023-05-15T15:32:44.161Z,24.30
2023-05-15T15:35:48.719Z,23.90
2023-05-15T15:38:51.768Z,23.70
2023-05-15T15:41:54.977Z,23.60
2023-05-15T15:44:58.199Z,23.50
2023-05-15T15:48:01.366Z,23.40
2023-05-15T15:51:06.553Z,23.30
2023-05-15T15:54:09.616Z,23.20
2023-05-15T15:57:13.056Z,23.10
2023-05-15T16:00:16.886Z,22.90
2023-05-15T16:03:20.085Z,22.70
2023-05-15T16:06:24.630Z,22.60
2023-05-15T16:09:27.755Z,22.50
2023-05-15T16:12:30.906Z,22.20
2023-05-15T16:15:34.065Z,22.00
2023-05-15T16:18:37.438Z,21.90
2023-05-15T16:21:42.023Z,21.80
2023-05-15T16:24:45.064Z,21.90
2023-05-15T16:27:48.203Z,21.90
2023-05-15T16:30:52.154Z,21.90
2023-05-15T16:33:55.458Z,21.80
2023-05-15T16:36:59.988Z,21.70
2023-05-15T16:40:04.136Z,21.50
2023-05-15T16:43:10.295Z,21.20
2023-05-15T16:46:13.472Z,21.00
2023-05-15T16:49:16.679Z,21.00
2023-05-15T16:52:21.465Z,21.00
2023-05-15T16:55:24.638Z,20.90
2023-05-15T16:58:27.792Z,20.90
2023-05-15T17:01:31.168Z,20.80
2023-05-15T17:04:35.351Z,20.70
2023-05-15T17:07:40.405Z,20.70
2023-05-15T17:10:43.534Z,20.70
2023-05-15T17:13:46.709Z,20.70
2023-05-15T17:16:49.947Z,20.40
2023-05-15T17:19:53.188Z,20.40
2023-05-15T17:22:58.160Z,20.40
2023-05-15T17:26:01.297Z,20.20
2023-05-15T17:29:05.723Z,20.10
2023-05-15T17:32:09.450Z,20.10
2023-05-15T17:35:12.616Z,20.10
2023-05-15T17:38:17.186Z,20.00
2023-05-15T17:41:22.128Z,20.00
2023-05-15T17:44:27.945Z,20.00
2023-05-15T17:47:31.053Z,19.90
2023-05-15T17:50:37.979Z,19.80
2023-05-15T17:53:42.546Z,19.70
2023-05-15T17:56:45.785Z,19.60
2023-05-15T17:59:48.937Z,19.60
2023-05-15T18:02:52.193Z,19.50
2023-05-15T18:05:55.316Z,19.40
2023-05-15T18:09:00.879Z,19.30
2023-05-15T18:12:04.134Z,19.20
2023-05-15T18:15:09.483Z,19.10
2023-05-15T18:18:12.597Z,19.10
2023-05-15T18:21:16.188Z,18.90
2023-05-15T18:24:20.844Z,18.80
2023-05-15T18:27:23.986Z,18.70
2023-05-15T18:30:27.080Z,18.60
2023-05-15T18:33:30.279Z,18.50
2023-05-15T18:36:33.378Z,18.40
2023-05-15T18:39:39.961Z,18.30
2023-05-15T18:42:43.034Z,18.30
2023-05-15T18:45:46.433Z,18.30
2023-05-15T18:48:49.558Z,18.20
2023-05-15T18:51:52.971Z,18.10
2023-05-15T18:54:57.964Z,18.20
2023-05-15T18:58:01.107Z,18.10
2023-05-15T19:01:04.568Z,18.10
2023-05-15T19:04:08.347Z,18.20
2023-05-15T19:07:11.436Z,18.20
2023-05-15T19:10:16.116Z,18.10
2023-05-15T19:13:19.340Z,18.00
2023-05-15T19:16:22.577Z,18.00
2023-05-15T19:19:26.113Z,18.00
2023-05-15T19:22:29.176Z,17.90
2023-05-15T19:25:33.736Z,17.80
2023-05-15T19:28:36.883Z,17.70
2023-05-15T19:31:40.099Z,17.70
2023-05-15T19:34:43.204Z,17.60
2023-05-15T19:37:46.410Z,17.60
2023-05-15T19:40:50.904Z,17.50
2023-05-15T19:43:54.083Z,17.50
2023-05-15T19:46:57.344Z,17.40
2023-05-15T19:50:00.551Z,17.40
2023-05-15T19:53:03.618Z,17.40
2023-05-15T19:56:08.527Z,17.40
2023-05-15T19:59:11.839Z,17.40
2023-05-15T20:02:15.197Z,17.40
2023-05-15T20:05:18.839Z,17.30
2023-05-15T20:08:22.124Z,17.30
2023-05-15T20:11:26.750Z,17.20
2023-05-15T20:14:29.877Z,17.10
2023-05-15T20:17:34.922Z,17.10
2023-05-15T20:20:38.197Z,17.00
2023-05-15T20:23:41.313Z,17.00
2023-05-15T20:26:46.040Z,17.00
2023-05-15T20:29:49.092Z,17.00
2023-05-15T20:32:52.417Z,17.00
2023-05-15T20:35:55.675Z,16.90
2023-05-15T20:38:58.987Z,16.90
2023-05-15T20:42:03.498Z,16.80
2023-05-15T20:45:08.648Z,16.70
2023-05-15T20:48:11.992Z,16.60
2023-05-15T20:51:17.878Z,16.50
2023-05-15T20:54:20.992Z,16.50
2023-05-15T20:57:25.451Z,16.40
2023-05-15T21:00:28.797Z,16.50
2023-05-15T21:03:32.175Z,16.40
2023-05-15T21:06:35.491Z,16.40
2023-05-15T21:09:38.615Z,16.40
2023-05-15T21:12:43.234Z,16.30
2023-05-15T21:15:46.812Z,16.30
2023-05-15T21:18:49.954Z,16.20
2023-05-15T21:21:53.044Z,16.10
2023-05-15T21:24:56.171Z,16.10
2023-05-15T21:28:00.650Z,16.10
2023-05-15T21:31:08.253Z,16.10
2023-05-15T21:34:11.535Z,16.00
2023-05-15T21:37:14.693Z,15.90
2023-05-15T21:40:18.003Z,15.90
2023-05-15T21:43:22.522Z,15.80
2023-05-15T21:46:25.708Z,15.90
2023-05-15T21:49:28.793Z,15.80
2023-05-15T21:52:31.921Z,15.80
2023-05-15T21:55:35.087Z,15.80
2023-05-15T21:58:39.647Z,15.80
2023-05-15T22:01:42.838Z,15.80
2023-05-15T22:04:46.145Z,15.70
2023-05-15T22:07:49.300Z,15.80
2023-05-15T22:10:52.459Z,15.70
2023-05-15T22:13:57.021Z,15.70
2023-05-15T22:17:00.125Z,15.80
2023-05-15T22:20:07.968Z,15.80
2023-05-15T22:23:11.572Z,15.70
2023-05-15T22:26:14.675Z,15.70
2023-05-15T22:29:19.402Z,15.70
2023-05-15T22:32:25.683Z,15.70
2023-05-15T22:35:29.329Z,15.70
2023-05-15T22:38:32.642Z,15.70
2023-05-15T22:41:35.743Z,15.70
2023-05-15T22:44:40.231Z,15.60
2023-05-15T22:47:43.464Z,15.60
2023-05-15T22:50:46.574Z,15.70
2023-05-15T22:53:49.622Z,15.70
2023-05-15T22:56:53.608Z,15.70
2023-05-15T22:59:58.250Z,15.70
2023-05-15T23:03:01.440Z,15.70
2023-05-15T23:06:04.745Z,15.60
2023-05-15T23:09:08.524Z,15.60
2023-05-15T23:12:11.652Z,15.60
2023-05-15T23:15:16.320Z,15.60
2023-05-15T23:18:19.619Z,15.50
2023-05-15T23:21:22.802Z,15.50
2023-05-15T23:24:26.110Z,15.50
2023-05-15T23:27:29.169Z,15.50
2023-05-15T23:30:34.043Z,15.50
2023-05-15T23:33:38.152Z,15.40
2023-05-15T23:36:41.315Z,15.50
2023-05-15T23:39:44.386Z,15.40
2023-05-15T23:42:47.520Z,15.40
2023-05-15T23:45:52.062Z,15.40
2023-05-15T23:48:55.152Z,15.30
2023-05-15T23:51:58.235Z,15.30
2023-05-15T23:55:01.878Z,15.20
2023-05-15T23:58:05.143Z,15.20
